createdAt,value
2022-10-11T07:53:52.572Z,2.70
2022-10-11T07:56:30.958Z,2.80
2022-10-11T07:59:06.464Z,2.80
2022-10-11T08:01:38.721Z,2.87
2022-10-11T08:04:10.964Z,2.80
2022-10-11T08:06:43.238Z,3.23
2022-10-11T08:09:16.571Z,3.10
2022-10-11T08:11:48.893Z,2.90
2022-10-11T08:14:21.417Z,3.17
2022-10-11T08:16:53.657Z,2.70
2022-10-11T08:19:25.891Z,2.80
2022-10-11T08:22:00.588Z,2.83
2022-10-11T08:24:38.013Z,3.27
2022-10-11T08:27:10.613Z,3.50
2022-10-11T08:29:42.889Z,3.10
2022-10-11T08:32:16.569Z,3.40
2022-10-11T08:34:49.375Z,3.00
2022-10-11T08:37:21.641Z,3.10
2022-10-11T08:39:54.248Z,3.30
2022-10-11T08:42:42.077Z,3.40
2022-10-11T08:45:27.117Z,3.27
2022-10-11T08:48:25.724Z,2.90
2022-10-11T08:50:58.725Z,2.70
2022-10-11T08:53:37.188Z,2.87
2022-10-11T08:56:13.603Z,2.80
2022-10-11T08:58:50.655Z,3.00
2022-10-11T09:01:20.765Z,2.77
2022-10-11T09:03:46.499Z,2.80
2022-10-11T09:06:11.494Z,2.47
2022-10-11T09:08:40.529Z,3.20
2022-10-11T09:11:19.505Z,2.70
2022-10-11T09:14:07.148Z,2.57
2022-10-11T09:16:45.743Z,2.50
2022-10-11T09:19:16.942Z,2.70
2022-10-11T09:21:45.723Z,2.37
2022-10-11T09:24:21.776Z,2.23
2022-10-11T09:26:51.139Z,2.27
2022-10-11T09:29:20.481Z,2.50
2022-10-11T09:31:52.557Z,2.30
2022-10-11T09:34:16.167Z,1.90
2022-10-11T09:36:41.107Z,2.20
2022-10-11T09:39:25.823Z,2.20
2022-10-11T09:42:00.162Z,1.67
2022-10-11T09:44:24.767Z,2.20
2022-10-11T09:46:49.267Z,1.87
2022-10-11T09:49:18.491Z,1.70
2022-10-11T09:51:45.102Z,1.57
2022-10-11T09:54:10.561Z,1.77
2022-10-11T09:56:34.662Z,2.00
2022-10-11T09:59:07.077Z,1.50
2022-10-11T10:01:30.940Z,1.40
2022-10-11T10:04:16.999Z,1.17
2022-10-11T10:06:40.231Z,1.50
2022-10-11T10:09:34.918Z,1.40
2022-10-11T10:11:58.048Z,1.47
2022-10-11T10:14:24.220Z,1.57
2022-10-11T10:16:46.426Z,1.47
2022-10-11T10:19:19.448Z,1.10
2022-10-11T10:21:47.985Z,1.37
2022-10-11T10:24:20.939Z,1.40
2022-10-11T10:26:44.500Z,1.20
2022-10-11T10:29:12.300Z,1.30
2022-10-11T10:32:13.268Z,1.43
2022-10-11T10:34:38.014Z,1.20
2022-10-11T10:37:06.735Z,1.20
2022-10-11T10:39:34.371Z,1.30
2022-10-11T10:41:57.013Z,1.07
2022-10-11T10:44:19.477Z,1.30
2022-10-11T10:47:00.233Z,1.10
2022-10-11T10:49:53.732Z,1.47
2022-10-11T10:52:20.887Z,1.33
2022-10-11T10:55:07.807Z,0.93
2022-10-11T10:57:54.458Z,1.60
2022-10-11T11:00:21.398Z,1.70
2022-10-11T11:03:02.451Z,1.23
2022-10-11T11:05:27.540Z,1.17
2022-10-11T11:08:27.607Z,1.10
2022-10-11T11:11:27.017Z,1.20
2022-10-11T11:14:03.383Z,1.63
2022-10-11T11:16:31.350Z,1.50
2022-10-11T11:19:09.859Z,0.90
2022-10-11T11:21:51.192Z,1.38
2022-10-11T11:24:34.772Z,1.10
2022-10-11T11:27:15.727Z,1.08
2022-10-11T11:29:43.744Z,1.25
2022-10-11T11:32:34.865Z,1.10
2022-10-11T11:35:03.900Z,1.50
2022-10-11T11:37:34.715Z,1.10
2022-10-11T11:40:07.873Z,1.52
2022-10-11T11:42:48.532Z,0.87
2022-10-11T11:45:40.112Z,1.30
2022-10-11T11:48:04.088Z,1.60
2022-10-11T11:50:28.623Z,1.50
2022-10-11T11:53:08.070Z,1.07
2022-10-11T11:55:48.298Z,1.05
2022-10-11T11:58:45.503Z,1.33
2022-10-11T12:01:37.515Z,1.58
2022-10-11T12:04:05.193Z,1.02
2022-10-11T12:06:47.764Z,1.33
2022-10-11T12:09:18.570Z,0.90
2022-10-11T12:11:46.160Z,1.02
2022-10-11T12:14:29.752Z,1.20
2022-10-11T12:17:23.712Z,1.30
2022-10-11T12:20:24.537Z,0.93
2022-10-11T12:22:49.544Z,1.58
2022-10-11T12:25:18.539Z,1.17
2022-10-11T12:27:44.318Z,1.10
2022-10-11T12:30:44.257Z,1.03
2022-10-11T12:33:45.628Z,1.03
2022-10-11T12:36:29.740Z,1.30
2022-10-11T12:39:20.566Z,1.30
2022-10-11T12:41:49.107Z,1.30
2022-10-11T12:44:28.386Z,1.10
2022-10-11T12:46:50.217Z,0.95
2022-10-11T12:49:29.324Z,1.00
2022-10-11T12:51:51.305Z,1.40
2022-10-11T12:54:26.678Z,0.80
2022-10-11T12:57:02.302Z,1.25
2022-10-11T12:59:25.040Z,1.00
2022-10-11T13:01:56.621Z,1.13
2022-10-11T13:04:29.346Z,1.25
2022-10-11T13:07:01.103Z,1.17
2022-10-11T13:09:48.082Z,1.10
2022-10-11T13:12:21.159Z,1.20
2022-10-11T13:14:48.348Z,1.45
2022-10-11T13:17:34.493Z,1.00
2022-10-11T13:20:15.759Z,1.42
2022-10-11T13:22:40.542Z,1.55
2022-10-11T13:25:05.662Z,1.07
2022-10-11T13:27:28.012Z,1.58
2022-10-11T13:29:53.074Z,1.23
2022-10-11T13:32:20.006Z,1.67
2022-10-11T13:34:45.984Z,1.30
2022-10-11T13:37:17.535Z,2.07
2022-10-11T13:39:39.506Z,1.70
2022-10-11T13:42:07.557Z,1.53
2022-10-11T13:44:33.174Z,1.63
2022-10-11T13:46:55.741Z,1.92
2022-10-11T13:49:37.676Z,1.27
2022-10-11T13:52:03.333Z,1.70
2022-10-11T13:54:25.305Z,5.05
2022-10-11T13:56:51.513Z,1.45
2022-10-11T13:59:20.921Z,1.30
2022-10-11T14:01:45.531Z,1.30
2022-10-11T14:04:10.269Z,1.27
2022-10-11T14:07:00.311Z,1.90
2022-10-11T14:09:24.122Z,1.30
2022-10-11T14:11:46.471Z,1.20
2022-10-11T14:14:30.325Z,1.10
2022-10-11T14:16:58.808Z,1.00
2022-10-11T14:19:21.184Z,1.10
2022-10-11T14:21:46.117Z,1.08
2022-10-11T14:24:10.673Z,1.40
2022-10-11T14:26:43.511Z,1.25
2022-10-11T14:29:14.001Z,1.30
2022-10-11T14:31:41.357Z,0.90
2022-10-11T14:34:04.518Z,1.30
2022-10-11T14:36:26.691Z,1.90
2022-10-11T14:38:50.224Z,1.52
2022-10-11T14:41:12.194Z,1.48
2022-10-11T14:43:34.095Z,1.55
2022-10-11T14:45:56.010Z,1.50
2022-10-11T14:48:36.659Z,1.98
2022-10-11T14:51:03.218Z,3.78
2022-10-11T14:53:27.085Z,1.13
2022-10-11T14:55:50.045Z,1.80
2022-10-11T14:58:14.530Z,1.40
2022-10-11T15:00:37.183Z,1.80
2022-10-11T15:02:59.802Z,1.63
2022-10-11T15:05:24.462Z,1.30
2022-10-11T15:07:46.554Z,1.20
2022-10-11T15:10:46.969Z,1.15
2022-10-11T15:13:09.997Z,1.33
2022-10-11T15:15:35.414Z,1.10
2022-10-11T15:17:59.951Z,1.50
2022-10-11T15:20:44.442Z,1.40
2022-10-11T15:23:09.535Z,1.47
2022-10-11T15:25:31.725Z,1.13
2022-10-11T15:27:53.713Z,1.23
2022-10-11T15:30:25.135Z,0.80
2022-10-11T15:32:47.981Z,1.27
2022-10-11T15:35:11.533Z,1.00
2022-10-11T15:37:37.294Z,1.88
2022-10-11T15:39:59.512Z,1.40
2022-10-11T15:42:23.977Z,1.52
2022-10-11T15:44:45.944Z,1.30
2022-10-11T15:47:08.752Z,1.20
2022-10-11T15:49:30.705Z,1.40
2022-10-11T15:51:52.755Z,1.20
2022-10-11T15:54:14.685Z,1.13
2022-10-11T15:56:36.627Z,1.00
2022-10-11T15:58:58.714Z,1.30
2022-10-11T16:01:20.817Z,1.10
2022-10-11T16:03:43.802Z,1.23
2022-10-11T16:06:08.636Z,1.30
2022-10-11T16:08:30.910Z,1.20
2022-10-11T16:10:53.580Z,1.50
2022-10-11T16:13:15.890Z,1.47
2022-10-11T16:15:39.809Z,1.33
2022-10-11T16:18:02.455Z,1.45
2022-10-11T16:20:25.821Z,1.58
2022-10-11T16:22:49.633Z,1.30
2022-10-11T16:25:11.563Z,1.60
2022-10-11T16:27:36.149Z,1.60
2022-10-11T16:30:00.144Z,1.20
2022-10-11T16:32:22.931Z,1.33
2022-10-11T16:34:44.785Z,1.20
2022-10-11T16:37:06.756Z,1.60
2022-10-11T16:39:29.123Z,1.70
2022-10-11T16:41:51.168Z,1.40
2022-10-11T16:44:15.061Z,1.50
2022-10-11T16:46:37.053Z,1.63
2022-10-11T16:48:58.953Z,1.83
2022-10-11T16:51:20.818Z,2.07
2022-10-11T16:53:42.691Z,2.10
2022-10-11T16:56:09.158Z,2.27
2022-10-11T16:58:33.876Z,2.30
2022-10-11T17:00:55.863Z,2.53
2022-10-11T17:03:17.926Z,3.07
2022-10-11T17:05:41.237Z,2.40
2022-10-11T17:08:03.102Z,2.47
2022-10-11T17:10:39.442Z,6.13
2022-10-11T17:13:01.482Z,6.57
2022-10-11T17:15:26.202Z,6.13
2022-10-11T17:17:48.130Z,5.43
2022-10-11T17:20:10.041Z,4.47
2022-10-11T17:22:33.160Z,4.90
2022-10-11T17:24:55.103Z,4.60
2022-10-11T17:27:17.168Z,4.23
2022-10-11T17:29:40.397Z,4.17
2022-10-11T17:32:02.649Z,3.70
2022-10-11T17:34:24.587Z,3.40
2022-10-11T17:36:46.572Z,3.77
2022-10-11T17:39:11.927Z,4.03
2022-10-11T17:41:34.293Z,4.40
2022-10-11T17:43:56.314Z,4.87
2022-10-11T17:46:18.708Z,4.27
2022-10-11T17:48:41.334Z,3.30
2022-10-11T17:51:17.927Z,3.10
2022-10-11T17:53:40.716Z,2.80
2022-10-11T17:56:08.162Z,2.30
2022-10-11T17:58:30.139Z,3.00
2022-10-11T18:00:52.150Z,2.93
2022-10-11T18:03:14.161Z,3.43
2022-10-11T18:05:41.064Z,2.50
2022-10-11T18:08:02.979Z,2.70
2022-10-11T18:10:25.180Z,3.63
2022-10-11T18:12:47.188Z,3.23
2022-10-11T18:15:09.475Z,2.83
2022-10-11T18:17:31.425Z,2.77
2022-10-11T18:19:53.384Z,3.43
2022-10-11T18:22:15.376Z,2.90
2022-10-11T18:24:37.460Z,5.13
2022-10-11T18:26:59.326Z,4.90
2022-10-11T18:29:23.764Z,6.10
2022-10-11T18:31:46.193Z,4.33
2022-10-11T18:34:10.861Z,3.60
2022-10-11T18:36:33.368Z,2.67
2022-10-11T18:38:58.632Z,2.60
2022-10-11T18:41:22.948Z,2.60
2022-10-11T18:43:52.946Z,2.60
2022-10-11T18:46:16.470Z,2.40
2022-10-11T18:48:43.134Z,2.70
2022-10-11T18:51:08.107Z,3.23
2022-10-11T18:53:32.442Z,3.40
2022-10-11T18:56:02.143Z,3.93
2022-10-11T18:58:24.150Z,4.43
2022-10-11T19:00:46.126Z,4.33
2022-10-11T19:03:09.150Z,4.50
2022-10-11T19:05:31.094Z,3.77
2022-10-11T19:07:56.689Z,4.97
2022-10-11T19:10:21.841Z,4.83
2022-10-11T19:12:43.942Z,4.47
2022-10-11T19:15:07.817Z,3.40
2022-10-11T19:17:30.066Z,3.70
2022-10-11T19:19:51.967Z,3.87
2022-10-11T19:22:13.838Z,3.17
2022-10-11T19:24:35.719Z,3.00
2022-10-11T19:27:02.498Z,2.87
2022-10-11T19:29:26.950Z,2.80
2022-10-11T19:31:55.372Z,2.73
2022-10-11T19:34:18.182Z,3.60
2022-10-11T19:36:42.812Z,5.07
2022-10-11T19:39:06.025Z,3.40
2022-10-11T19:41:32.013Z,4.17
2022-10-11T19:43:54.646Z,4.80
2022-10-11T19:46:37.967Z,4.50
2022-10-11T19:49:01.992Z,8.43
2022-10-11T19:51:26.198Z,6.40
2022-10-11T19:53:57.667Z,4.23
2022-10-11T19:56:19.672Z,5.20
2022-10-11T19:58:42.270Z,4.33
2022-10-11T20:01:17.882Z,3.80
2022-10-11T20:03:39.909Z,3.43
2022-10-11T20:06:03.120Z,3.73
2022-10-11T20:08:25.058Z,3.80
2022-10-11T20:10:48.421Z,3.53
2022-10-11T20:13:12.124Z,3.63
2022-10-11T20:15:37.545Z,3.77
2022-10-11T20:18:00.554Z,4.20
2022-10-11T20:20:23.536Z,4.70
2022-10-11T20:22:45.546Z,5.90
2022-10-11T20:25:07.867Z,6.00
2022-10-11T20:27:31.984Z,5.50
2022-10-11T20:29:54.010Z,4.20
2022-10-11T20:32:15.929Z,3.73
2022-10-11T20:34:39.576Z,3.47
2022-10-11T20:37:01.435Z,3.53
2022-10-11T20:39:23.883Z,3.50
2022-10-11T20:41:46.269Z,3.30
2022-10-11T20:44:12.474Z,8.87
2022-10-11T20:46:37.097Z,7.20
2022-10-11T20:49:02.437Z,2.97
2022-10-11T20:51:24.468Z,3.00
2022-10-11T20:53:47.463Z,2.90
2022-10-11T20:56:12.340Z,2.23
2022-10-11T20:58:35.369Z,3.13
2022-10-11T21:00:57.311Z,3.60
2022-10-11T21:03:20.353Z,2.60
2022-10-11T21:05:43.539Z,2.80
2022-10-11T21:08:10.324Z,3.17
2022-10-11T21:10:35.839Z,3.60
2022-10-11T21:12:57.667Z,3.27
2022-10-11T21:15:19.532Z,3.30
2022-10-11T21:17:42.444Z,3.50
2022-10-11T21:20:06.131Z,3.70
2022-10-11T21:22:27.993Z,4.60
2022-10-11T21:24:49.928Z,4.17
2022-10-11T21:27:11.874Z,4.20
2022-10-11T21:29:34.927Z,3.73
2022-10-11T21:31:56.859Z,3.93
2022-10-11T21:34:18.788Z,3.43
2022-10-11T21:36:40.897Z,3.43
2022-10-11T21:39:03.953Z,3.93
2022-10-11T21:41:29.109Z,3.50
2022-10-11T21:43:51.942Z,3.23
2022-10-11T21:46:41.757Z,2.80
2022-10-11T21:49:12.869Z,3.03
2022-10-11T21:51:34.747Z,2.90
2022-10-11T21:53:59.598Z,3.80
2022-10-11T21:56:21.868Z,2.50
2022-10-11T21:58:47.606Z,2.27
2022-10-11T22:01:11.827Z,2.30
2022-10-11T22:03:33.900Z,2.07
2022-10-11T22:05:55.813Z,2.30
2022-10-11T22:08:19.097Z,2.27
2022-10-11T22:10:51.885Z,2.37
2022-10-11T22:13:14.906Z,2.23
2022-10-11T22:15:37.299Z,3.73
2022-10-11T22:17:59.154Z,3.93
2022-10-11T22:20:22.000Z,2.00
2022-10-11T22:22:43.815Z,2.23
2022-10-11T22:25:08.809Z,2.30
2022-10-11T22:27:30.666Z,2.50
2022-10-11T22:29:52.576Z,3.03
2022-10-11T22:32:14.424Z,5.40
2022-10-11T22:34:37.775Z,2.73
2022-10-11T22:36:59.712Z,1.90
2022-10-11T22:39:23.041Z,2.00
2022-10-11T22:41:44.961Z,2.63
2022-10-11T22:44:08.202Z,2.23
2022-10-11T22:46:30.152Z,2.03
2022-10-11T22:48:52.104Z,2.10
2022-10-11T22:51:14.618Z,2.17
2022-10-11T22:53:36.494Z,2.37
2022-10-11T22:55:58.787Z,1.90
2022-10-11T22:58:20.728Z,1.87
2022-10-11T23:00:42.892Z,1.87
2022-10-11T23:03:07.169Z,2.23
2022-10-11T23:05:29.163Z,2.40
2022-10-11T23:07:52.333Z,2.77
2022-10-11T23:10:15.594Z,1.90
2022-10-11T23:12:37.519Z,2.10
2022-10-11T23:14:59.372Z,2.90
2022-10-11T23:17:21.640Z,2.33
2022-10-11T23:19:43.544Z,2.40
2022-10-11T23:22:05.456Z,2.93
2022-10-11T23:24:27.332Z,4.20
2022-10-11T23:26:49.297Z,3.90
2022-10-11T23:29:11.264Z,3.77
2022-10-11T23:31:33.133Z,2.73
2022-10-11T23:33:55.074Z,5.17
2022-10-11T23:36:19.771Z,5.00
2022-10-11T23:38:41.767Z,5.07
2022-10-11T23:41:03.813Z,4.10
2022-10-11T23:43:25.786Z,3.97
2022-10-11T23:45:47.710Z,3.67
2022-10-11T23:48:09.710Z,4.10
2022-10-11T23:50:31.591Z,3.43
2022-10-11T23:52:53.696Z,3.60
2022-10-11T23:55:15.871Z,2.80
2022-10-11T23:57:38.161Z,2.53
